createdAt,value
2017-12-27T00:00:08.373Z,2.60
2017-12-27T00:02:40.538Z,3.40
2017-12-27T00:05:12.605Z,4.12
2017-12-27T00:07:44.474Z,2.70
2017-12-27T00:10:16.522Z,3.33
2017-12-27T00:12:48.513Z,3.85
2017-12-27T00:15:20.423Z,2.75
2017-12-27T00:17:52.482Z,4.35
2017-12-27T00:20:24.274Z,4.12
2017-12-27T00:22:56.207Z,3.45
2017-12-27T00:25:28.212Z,3.65
2017-12-27T00:28:00.070Z,4.20
2017-12-27T00:30:31.962Z,2.30
2017-12-27T00:32:57.778Z,2.37
2017-12-27T00:35:23.575Z,3.20
2017-12-27T00:37:49.378Z,2.70
2017-12-27T00:40:15.188Z,3.10
2017-12-27T00:42:40.978Z,2.27
2017-12-27T00:45:06.754Z,2.23
2017-12-27T00:47:32.526Z,1.37
2017-12-27T00:49:58.345Z,3.10
2017-12-27T00:52:24.125Z,3.30
2017-12-27T00:54:49.912Z,2.90
2017-12-27T00:57:15.726Z,2.83
2017-12-27T00:59:41.506Z,3.33
2017-12-27T01:02:07.298Z,2.97
2017-12-27T01:04:33.105Z,2.70
2017-12-27T01:06:58.877Z,2.90
2017-12-27T01:09:24.639Z,3.80
2017-12-27T01:11:50.726Z,3.20
2017-12-27T01:14:16.513Z,3.58
2017-12-27T01:16:42.293Z,3.33
2017-12-27T01:19:08.092Z,3.60
2017-12-27T01:21:33.872Z,4.23
2017-12-27T01:23:59.667Z,4.20
2017-12-27T01:26:25.439Z,3.63
2017-12-27T01:28:51.479Z,3.70
2017-12-27T01:31:17.598Z,3.90
2017-12-27T01:33:43.376Z,3.50
2017-12-27T01:36:09.166Z,3.30
2017-12-27T01:38:34.962Z,2.90
2017-12-27T01:41:00.749Z,3.40
2017-12-27T01:43:26.521Z,3.53
2017-12-27T01:45:52.312Z,3.53
2017-12-27T01:48:18.125Z,3.20
2017-12-27T01:50:43.914Z,3.23
2017-12-27T01:53:09.693Z,2.43
2017-12-27T01:55:35.474Z,3.70
2017-12-27T01:58:01.245Z,3.77
2017-12-27T02:00:27.056Z,2.97
2017-12-27T02:02:52.834Z,2.70
2017-12-27T02:05:18.639Z,3.17
2017-12-27T02:07:44.462Z,3.67
2017-12-27T02:10:10.258Z,3.10
2017-12-27T02:12:36.050Z,3.80
2017-12-27T02:15:01.879Z,3.30
2017-12-27T02:17:27.667Z,2.80
2017-12-27T02:19:53.456Z,3.43
2017-12-27T02:22:19.232Z,4.90
2017-12-27T02:24:45.035Z,3.07
2017-12-27T02:27:10.839Z,3.70
2017-12-27T02:29:36.926Z,3.20
2017-12-27T02:32:02.725Z,3.35
2017-12-27T02:34:28.510Z,3.00
2017-12-27T02:36:54.287Z,3.33
2017-12-27T02:39:32.575Z,2.87
2017-12-27T02:41:58.374Z,3.17
2017-12-27T02:44:24.163Z,2.97
2017-12-27T02:46:49.946Z,136.30
2017-12-27T02:49:15.746Z,236.47
2017-12-27T02:51:41.543Z,127.10
2017-12-27T02:54:07.337Z,40.13
2017-12-27T02:56:33.128Z,25.60
2017-12-27T02:58:58.907Z,20.27
2017-12-27T03:01:24.712Z,16.10
2017-12-27T03:03:50.519Z,4.03
2017-12-27T03:06:16.308Z,25.50
2017-12-27T03:08:42.107Z,37.70
2017-12-27T03:11:07.875Z,33.13
2017-12-27T03:13:33.649Z,4.73
2017-12-27T03:15:59.455Z,11.23
2017-12-27T03:18:25.238Z,8.00
2017-12-27T03:20:51.024Z,2.43
2017-12-27T03:23:16.841Z,6.10
2017-12-27T03:25:42.625Z,4.80
2017-12-27T03:28:08.406Z,3.17
2017-12-27T03:30:34.585Z,3.80
2017-12-27T03:33:07.477Z,3.50
2017-12-27T03:35:33.295Z,2.90
2017-12-27T03:37:59.115Z,3.30
2017-12-27T03:40:24.906Z,2.80
2017-12-27T03:42:50.685Z,3.33
2017-12-27T03:45:16.491Z,4.33
2017-12-27T03:47:42.283Z,2.80
2017-12-27T03:50:08.151Z,2.80
2017-12-27T03:52:33.955Z,2.33
2017-12-27T03:54:59.731Z,3.47
2017-12-27T03:57:25.518Z,2.50
2017-12-27T03:59:51.306Z,2.90
2017-12-27T04:02:17.098Z,3.20
2017-12-27T04:04:42.885Z,2.47
2017-12-27T04:07:08.664Z,1.80
2017-12-27T04:09:34.463Z,2.60
2017-12-27T04:12:00.426Z,2.50
2017-12-27T04:14:26.218Z,2.50
2017-12-27T04:16:52.011Z,2.50
2017-12-27T04:19:17.840Z,3.50
2017-12-27T04:21:43.622Z,1.97
2017-12-27T04:24:09.397Z,2.50
2017-12-27T04:26:35.210Z,2.60
2017-12-27T04:29:00.987Z,2.63
2017-12-27T04:31:27.078Z,3.57
2017-12-27T04:33:52.858Z,2.12
2017-12-27T04:36:18.638Z,2.60
2017-12-27T04:38:44.650Z,3.10
2017-12-27T04:41:10.435Z,2.77
2017-12-27T04:43:36.217Z,1.97
2017-12-27T04:46:02.011Z,1.30
2017-12-27T04:48:27.792Z,2.40
2017-12-27T04:50:53.574Z,1.90
2017-12-27T04:53:19.361Z,2.03
2017-12-27T04:55:45.138Z,1.60
2017-12-27T04:58:10.916Z,1.60
2017-12-27T05:00:36.740Z,2.40
2017-12-27T05:03:02.564Z,2.13
2017-12-27T05:05:28.376Z,1.47
2017-12-27T05:07:54.167Z,1.50
2017-12-27T05:10:22.962Z,1.97
2017-12-27T05:12:48.757Z,1.27
2017-12-27T05:15:14.570Z,1.83
2017-12-27T05:17:40.340Z,2.47
2017-12-27T05:20:06.135Z,1.40
2017-12-27T05:22:31.922Z,1.50
2017-12-27T05:24:57.711Z,3.10
2017-12-27T05:27:23.485Z,1.47
2017-12-27T05:29:49.298Z,1.80
2017-12-27T05:32:15.158Z,1.80
2017-12-27T05:34:40.964Z,2.30
2017-12-27T05:37:06.747Z,2.20
2017-12-27T05:39:32.714Z,1.90
2017-12-27T05:41:58.508Z,2.13
2017-12-27T05:44:24.293Z,2.10
2017-12-27T05:46:50.071Z,2.43
2017-12-27T05:49:15.878Z,2.53
2017-12-27T05:51:41.847Z,2.50
2017-12-27T05:54:07.658Z,2.17
2017-12-27T05:56:33.438Z,1.80
2017-12-27T05:58:59.231Z,2.07
2017-12-27T06:01:25.040Z,2.10
2017-12-27T06:03:50.848Z,1.70
2017-12-27T06:06:16.626Z,2.33
2017-12-27T06:08:42.408Z,1.87
2017-12-27T06:11:08.400Z,1.70
2017-12-27T06:13:34.192Z,2.15
2017-12-27T06:15:59.971Z,2.00
2017-12-27T06:18:25.768Z,2.00
2017-12-27T06:20:51.573Z,2.27
2017-12-27T06:23:17.499Z,2.30
2017-12-27T06:25:43.277Z,2.63
2017-12-27T06:28:09.064Z,2.60
2017-12-27T06:30:34.874Z,1.90
2017-12-27T06:33:00.655Z,2.07
2017-12-27T06:35:26.434Z,2.10
2017-12-27T06:37:52.262Z,2.13
2017-12-27T06:40:18.050Z,1.97
2017-12-27T06:42:43.823Z,1.60
2017-12-27T06:45:09.641Z,2.33
2017-12-27T06:47:35.432Z,1.90
2017-12-27T06:50:01.220Z,2.10
2017-12-27T06:52:27.214Z,1.57
2017-12-27T06:54:53.021Z,2.53
2017-12-27T06:57:18.803Z,2.20
2017-12-27T06:59:45.286Z,1.90
2017-12-27T07:02:11.078Z,1.95
2017-12-27T07:04:36.866Z,1.83
2017-12-27T07:07:02.646Z,1.80
2017-12-27T07:09:28.435Z,1.60
2017-12-27T07:11:54.583Z,2.10
2017-12-27T07:14:20.363Z,2.00
2017-12-27T07:16:46.146Z,2.27
2017-12-27T07:19:11.943Z,1.27
2017-12-27T07:21:37.730Z,1.60
2017-12-27T07:24:03.527Z,2.23
2017-12-27T07:26:29.693Z,1.73
2017-12-27T07:28:55.474Z,1.90
2017-12-27T07:31:21.278Z,1.57
2017-12-27T07:33:47.079Z,1.50
2017-12-27T07:36:12.870Z,2.00
2017-12-27T07:38:38.700Z,2.00
2017-12-27T07:41:05.525Z,1.70
2017-12-27T07:43:31.328Z,2.10
2017-12-27T07:45:57.109Z,2.40
2017-12-27T07:48:22.935Z,1.97
2017-12-27T07:50:48.762Z,2.47
2017-12-27T07:53:14.954Z,2.17
2017-12-27T07:55:40.793Z,2.58
2017-12-27T07:58:06.601Z,2.90
2017-12-27T08:00:32.389Z,3.10
2017-12-27T08:02:58.394Z,2.20
2017-12-27T08:05:25.111Z,2.97
2017-12-27T08:07:50.914Z,2.03
2017-12-27T08:10:16.763Z,1.70
2017-12-27T08:12:42.563Z,2.60
2017-12-27T08:15:15.466Z,1.80
2017-12-27T08:17:41.259Z,2.62
2017-12-27T08:20:07.040Z,2.73
2017-12-27T08:22:33.179Z,2.33
2017-12-27T08:24:58.983Z,2.33
2017-12-27T08:27:24.778Z,2.47
2017-12-27T08:29:50.579Z,1.67
2017-12-27T08:32:16.374Z,2.30
2017-12-27T08:34:42.167Z,2.30
2017-12-27T08:37:08.394Z,3.13
2017-12-27T08:39:34.295Z,2.60
2017-12-27T08:42:00.099Z,1.80
2017-12-27T08:44:25.900Z,2.83
2017-12-27T08:46:51.691Z,2.80
2017-12-27T08:49:17.511Z,2.00
2017-12-27T08:51:43.327Z,2.40
2017-12-27T08:54:09.135Z,2.20
2017-12-27T08:56:34.910Z,2.50
2017-12-27T08:59:00.835Z,1.90
2017-12-27T09:01:26.614Z,2.50
2017-12-27T09:03:52.399Z,1.87
2017-12-27T09:06:18.390Z,2.20
2017-12-27T09:08:44.187Z,2.37
2017-12-27T09:11:09.975Z,2.10
2017-12-27T09:13:36.135Z,4.10
2017-12-27T09:16:01.942Z,2.97
2017-12-27T09:18:27.728Z,2.40
2017-12-27T09:20:53.542Z,2.13
2017-12-27T09:23:19.309Z,2.20
2017-12-27T09:25:45.106Z,2.07
2017-12-27T09:28:11.078Z,2.33
2017-12-27T09:30:37.077Z,2.10
2017-12-27T09:33:02.869Z,2.28
2017-12-27T09:35:28.661Z,2.03
2017-12-27T09:37:54.474Z,1.80
2017-12-27T09:40:20.498Z,2.40
2017-12-27T09:42:46.279Z,2.35
2017-12-27T09:45:12.138Z,1.90
2017-12-27T09:47:37.918Z,2.00
2017-12-27T09:50:03.711Z,2.10
2017-12-27T09:52:29.645Z,2.00
2017-12-27T09:54:55.427Z,1.83
2017-12-27T09:57:21.530Z,1.97
2017-12-27T09:59:47.331Z,2.40
2017-12-27T10:02:13.295Z,1.97
2017-12-27T10:04:39.069Z,1.87
2017-12-27T10:07:04.887Z,2.20
2017-12-27T10:09:30.800Z,2.13
2017-12-27T10:11:56.566Z,2.40
2017-12-27T10:14:22.530Z,1.77
2017-12-27T10:16:48.343Z,1.90
2017-12-27T10:19:14.118Z,1.37
2017-12-27T10:21:39.916Z,4.40
2017-12-27T10:24:05.729Z,8.50
2017-12-27T10:26:31.629Z,6.03
2017-12-27T10:28:57.427Z,3.20
2017-12-27T10:31:23.650Z,8.80
2017-12-27T10:33:49.408Z,6.68
2017-12-27T10:36:15.227Z,6.93
2017-12-27T10:38:41.019Z,15.03
2017-12-27T10:41:06.814Z,9.77
2017-12-27T10:43:32.599Z,3.50
2017-12-27T10:45:58.518Z,6.03
2017-12-27T10:48:24.313Z,12.73
2017-12-27T10:50:50.103Z,16.40
2017-12-27T10:53:15.937Z,10.47
2017-12-27T10:55:41.740Z,88.00
2017-12-27T10:58:07.527Z,3.63
2017-12-27T11:00:33.351Z,7.13
2017-12-27T11:02:59.122Z,4.60
2017-12-27T11:05:25.390Z,3.00
2017-12-27T11:07:52.342Z,3.67
2017-12-27T11:10:18.125Z,2.83
2017-12-27T11:12:43.918Z,2.00
2017-12-27T11:15:09.847Z,2.27
2017-12-27T11:17:35.652Z,3.17
2017-12-27T11:20:01.458Z,2.10
2017-12-27T11:22:27.274Z,9.60
2017-12-27T11:24:53.064Z,17.30
2017-12-27T11:27:18.847Z,7.00
2017-12-27T11:29:44.703Z,4.37
2017-12-27T11:32:10.486Z,1.90
2017-12-27T11:34:36.305Z,2.30
2017-12-27T11:37:02.110Z,2.37
2017-12-27T11:39:27.911Z,2.40
2017-12-27T11:41:53.760Z,3.23
2017-12-27T11:44:19.582Z,2.07
2017-12-27T11:46:45.353Z,1.93
2017-12-27T11:49:11.251Z,2.00
2017-12-27T11:51:37.027Z,2.87
2017-12-27T11:54:02.838Z,2.13
2017-12-27T11:56:28.635Z,2.03
2017-12-27T11:58:54.414Z,1.90
2017-12-27T12:01:20.477Z,2.20
2017-12-27T12:03:46.258Z,2.35
2017-12-27T12:06:12.057Z,2.13
2017-12-27T12:08:37.850Z,1.93
2017-12-27T12:11:10.466Z,1.80
2017-12-27T12:13:36.295Z,1.70
2017-12-27T12:16:02.092Z,1.87
2017-12-27T12:18:27.885Z,2.47
2017-12-27T12:20:53.706Z,3.30
2017-12-27T12:23:19.479Z,1.63
2017-12-27T12:25:45.251Z,7.43
2017-12-27T12:28:11.948Z,3.47
2017-12-27T12:30:37.727Z,8.23
2017-12-27T12:33:03.688Z,10.37
2017-12-27T12:35:29.527Z,1.50
2017-12-27T12:37:55.311Z,2.53
2017-12-27T12:40:21.115Z,3.53
2017-12-27T12:42:46.895Z,1.50
2017-12-27T12:45:12.691Z,2.40
2017-12-27T12:47:38.503Z,1.87
2017-12-27T12:50:04.279Z,2.50
2017-12-27T12:52:30.063Z,5.23
2017-12-27T12:54:55.856Z,2.00
2017-12-27T12:57:21.644Z,2.47
2017-12-27T12:59:47.438Z,2.30
2017-12-27T13:02:13.227Z,1.60
2017-12-27T13:04:39.002Z,3.93
2017-12-27T13:07:04.795Z,1.97
2017-12-27T13:09:30.626Z,4.53
2017-12-27T13:11:56.454Z,2.60
2017-12-27T13:14:22.256Z,15.03
2017-12-27T13:16:48.075Z,4.80
2017-12-27T13:19:14.235Z,2.97
2017-12-27T13:21:40.038Z,2.00
2017-12-27T13:24:05.862Z,7.40
2017-12-27T13:26:31.679Z,1.73
2017-12-27T13:28:57.478Z,2.27
2017-12-27T13:31:23.285Z,1.90
2017-12-27T13:33:49.076Z,2.70
2017-12-27T13:36:15.743Z,2.70
2017-12-27T13:38:41.856Z,3.33
2017-12-27T13:41:07.781Z,9.25
2017-12-27T13:43:33.590Z,9.57
2017-12-27T13:45:59.380Z,2.13
2017-12-27T13:48:25.171Z,19.30
2017-12-27T13:50:50.988Z,4.67
2017-12-27T13:53:17.289Z,6.90
2017-12-27T13:55:43.078Z,8.48
2017-12-27T13:58:09.225Z,5.90
2017-12-27T14:00:35.014Z,13.02
2017-12-27T14:03:00.994Z,2.63
2017-12-27T14:05:27.031Z,4.03
2017-12-27T14:07:52.819Z,4.30
2017-12-27T14:10:18.598Z,3.47
2017-12-27T14:12:44.384Z,4.87
2017-12-27T14:15:10.167Z,8.97
2017-12-27T14:17:36.400Z,6.93
2017-12-27T14:20:02.215Z,4.78
2017-12-27T14:22:28.174Z,4.73
2017-12-27T14:24:53.979Z,3.50
2017-12-27T14:27:19.795Z,3.20
2017-12-27T14:29:45.562Z,11.30
2017-12-27T14:32:11.548Z,8.27
2017-12-27T14:34:37.331Z,3.00
2017-12-27T14:37:03.122Z,3.43
2017-12-27T14:42:01.787Z,3.17
2017-12-27T14:44:27.593Z,7.05
2017-12-27T14:46:53.391Z,5.97
2017-12-27T14:49:19.183Z,4.00
2017-12-27T14:51:44.976Z,4.73
2017-12-27T14:54:10.766Z,4.77
2017-12-27T14:56:36.571Z,3.77
2017-12-27T14:59:02.351Z,2.73
2017-12-27T15:01:28.158Z,4.43
2017-12-27T15:03:54.164Z,5.00
2017-12-27T15:06:19.968Z,6.57
2017-12-27T15:08:45.770Z,4.50
2017-12-27T15:11:11.556Z,3.90
2017-12-27T15:13:37.355Z,4.40
2017-12-27T15:16:03.130Z,3.00
2017-12-27T15:18:28.931Z,3.17
2017-12-27T15:23:27.466Z,5.00
2017-12-27T15:25:53.263Z,3.13
2017-12-27T15:28:19.046Z,4.20
2017-12-27T15:30:44.851Z,3.57
2017-12-27T15:33:10.639Z,2.77
2017-12-27T15:35:36.414Z,2.57
2017-12-27T15:38:02.215Z,2.93
2017-12-27T15:40:34.947Z,2.13
2017-12-27T15:43:00.766Z,5.87
2017-12-27T15:45:26.551Z,24.30
2017-12-27T15:47:52.700Z,13.80
2017-12-27T15:50:18.487Z,23.38
2017-12-27T15:52:44.255Z,3.90
2017-12-27T15:55:11.110Z,12.83
2017-12-27T15:57:36.910Z,2.55
2017-12-27T16:00:02.723Z,7.77
2017-12-27T16:02:35.678Z,12.20
2017-12-27T16:05:01.521Z,38.08
2017-12-27T16:07:27.355Z,6.30
2017-12-27T16:09:53.147Z,3.10
2017-12-27T16:12:18.974Z,16.10
2017-12-27T16:14:44.758Z,15.73
2017-12-27T16:17:10.544Z,5.63
2017-12-27T16:19:36.362Z,5.23
2017-12-27T16:22:02.162Z,4.00
2017-12-27T16:24:27.934Z,12.03
2017-12-27T16:26:53.723Z,19.83
2017-12-27T16:29:19.525Z,28.40
2017-12-27T16:31:45.495Z,6.93
2017-12-27T16:34:11.278Z,3.40
2017-12-27T16:36:37.071Z,15.03
2017-12-27T16:39:02.947Z,10.50
2017-12-27T16:41:28.738Z,6.63
2017-12-27T16:43:54.529Z,10.77
2017-12-27T16:46:20.636Z,16.23
2017-12-27T16:48:46.434Z,13.60
2017-12-27T16:51:12.212Z,24.10
2017-12-27T16:53:37.994Z,45.73
2017-12-27T16:56:03.771Z,28.10
2017-12-27T16:58:29.551Z,9.93
2017-12-27T17:00:55.362Z,70.23
2017-12-27T17:03:21.147Z,86.90
2017-12-27T17:05:46.940Z,66.53
2017-12-27T17:08:12.738Z,12.93
2017-12-27T17:10:38.538Z,5.60
2017-12-27T17:13:04.319Z,8.67
2017-12-27T17:15:30.462Z,6.53
2017-12-27T17:17:56.252Z,6.00
2017-12-27T17:20:22.040Z,6.03
2017-12-27T17:22:47.882Z,6.73
2017-12-27T17:25:13.676Z,4.13
2017-12-27T17:27:39.459Z,5.70
2017-12-27T17:30:05.275Z,5.60
2017-12-27T17:32:31.047Z,4.20
2017-12-27T17:34:56.818Z,5.37
2017-12-27T17:37:22.634Z,7.50
2017-12-27T17:39:48.426Z,3.80
2017-12-27T17:42:14.203Z,6.20
2017-12-27T17:44:40.022Z,4.00
2017-12-27T17:47:05.807Z,21.27
2017-12-27T17:49:31.641Z,22.27
2017-12-27T17:51:57.450Z,4.80
2017-12-27T17:54:23.256Z,5.20
2017-12-27T17:56:49.050Z,4.90
2017-12-27T17:59:15.112Z,4.03
2017-12-27T18:01:40.926Z,4.67
2017-12-27T18:04:06.711Z,4.20
2017-12-27T18:06:32.554Z,4.80
2017-12-27T18:08:58.342Z,5.53
2017-12-27T18:11:24.110Z,10.23
2017-12-27T18:13:49.907Z,18.57
2017-12-27T18:16:15.696Z,12.83
2017-12-27T18:18:41.476Z,22.43
2017-12-27T18:21:07.295Z,6.67
2017-12-27T18:23:33.085Z,17.90
2017-12-27T18:25:58.866Z,14.57
2017-12-27T18:28:24.672Z,14.33
2017-12-27T18:30:50.459Z,5.10
2017-12-27T18:33:16.749Z,11.03
2017-12-27T18:35:42.564Z,11.43
2017-12-27T18:38:08.348Z,6.30
2017-12-27T18:40:34.154Z,6.00
2017-12-27T18:42:59.960Z,5.87
2017-12-27T18:45:27.007Z,5.50
2017-12-27T18:47:52.806Z,13.03
2017-12-27T18:50:18.658Z,9.13
2017-12-27T18:52:44.450Z,13.53
2017-12-27T18:55:10.278Z,7.17
2017-12-27T18:57:36.111Z,16.50
2017-12-27T19:00:02.076Z,14.60
2017-12-27T19:02:27.902Z,36.40
2017-12-27T19:04:53.722Z,44.63
2017-12-27T19:07:19.551Z,36.17
2017-12-27T19:09:45.379Z,28.03
2017-12-27T19:12:11.248Z,31.43
2017-12-27T19:14:37.196Z,14.97
2017-12-27T19:17:03.009Z,6.90
2017-12-27T19:19:28.800Z,7.10
2017-12-27T19:21:54.602Z,7.73
2017-12-27T19:24:20.387Z,21.17
2017-12-27T19:26:46.186Z,13.60
2017-12-27T19:29:12.162Z,25.40
2017-12-27T19:31:37.958Z,21.00
2017-12-27T19:34:03.763Z,9.43
2017-12-27T19:36:29.572Z,31.20
2017-12-27T19:38:55.359Z,26.90
2017-12-27T19:41:21.219Z,15.57
2017-12-27T19:43:47.420Z,12.33
2017-12-27T19:46:13.242Z,17.83
2017-12-27T19:48:39.023Z,16.00
2017-12-27T19:51:04.847Z,6.17
2017-12-27T19:53:30.641Z,5.90
2017-12-27T19:55:56.484Z,5.83
2017-12-27T19:58:22.298Z,12.67
2017-12-27T20:00:48.419Z,7.80
2017-12-27T20:03:14.250Z,11.88
2017-12-27T20:05:40.774Z,9.30
2017-12-27T20:08:06.569Z,8.23
2017-12-27T20:10:32.436Z,10.20
2017-12-27T20:12:58.231Z,7.37
2017-12-27T20:15:24.039Z,8.10
2017-12-27T20:17:49.839Z,20.17
2017-12-27T20:20:15.684Z,21.17
2017-12-27T20:22:41.554Z,6.80
2017-12-27T20:25:07.367Z,49.77
2017-12-27T20:27:33.154Z,7.10
2017-12-27T20:29:58.976Z,8.93
2017-12-27T20:32:24.767Z,6.70
2017-12-27T20:34:50.556Z,23.10
2017-12-27T20:37:16.784Z,7.40
2017-12-27T20:39:42.593Z,14.40
2017-12-27T20:42:09.734Z,30.40
2017-12-27T20:44:35.592Z,25.42
2017-12-27T20:47:01.495Z,17.27
2017-12-27T20:49:27.280Z,13.20
2017-12-27T20:51:53.202Z,11.63
2017-12-27T20:54:19.023Z,28.50
2017-12-27T20:56:44.895Z,9.93
2017-12-27T20:59:10.705Z,14.07
2017-12-27T21:01:36.542Z,9.07
2017-12-27T21:04:02.352Z,17.43
2017-12-27T21:06:29.092Z,7.60
2017-12-27T21:08:54.909Z,7.85
2017-12-27T21:11:21.178Z,13.23
2017-12-27T21:13:46.983Z,10.70
2017-12-27T21:16:12.791Z,16.60
2017-12-27T21:18:38.853Z,13.47
2017-12-27T21:21:04.657Z,9.00
2017-12-27T21:23:30.504Z,9.53
2017-12-27T21:25:56.325Z,9.03
2017-12-27T21:28:22.300Z,9.60
2017-12-27T21:30:48.114Z,14.40
2017-12-27T21:33:13.915Z,13.73
2017-12-27T21:35:40.104Z,10.20
2017-12-27T21:38:05.976Z,7.15
2017-12-27T21:40:31.816Z,11.67
2017-12-27T21:42:57.841Z,7.97
2017-12-27T21:45:23.646Z,8.85
2017-12-27T21:47:55.583Z,42.13
2017-12-27T21:50:21.606Z,7.12
2017-12-27T21:52:47.450Z,23.62
2017-12-27T21:55:14.445Z,6.10
2017-12-27T21:57:41.475Z,5.60
2017-12-27T22:00:13.429Z,10.15
2017-12-27T22:02:39.414Z,7.47
2017-12-27T22:05:07.494Z,37.73
2017-12-27T22:07:33.353Z,11.23
2017-12-27T22:09:59.173Z,18.63
2017-12-27T22:12:25.027Z,12.80
2017-12-27T22:14:51.108Z,36.07
2017-12-27T22:17:16.914Z,12.00
2017-12-27T22:19:42.743Z,17.30
2017-12-27T22:22:08.539Z,18.67
2017-12-27T22:24:34.658Z,13.20
2017-12-27T22:27:00.458Z,6.55
2017-12-27T22:29:26.296Z,12.67
2017-12-27T22:31:52.156Z,13.20
2017-12-27T22:34:17.988Z,12.13
2017-12-27T22:36:44.808Z,7.87
2017-12-27T22:39:10.636Z,6.90
2017-12-27T22:41:36.424Z,6.90
2017-12-27T22:44:02.252Z,8.13
2017-12-27T22:46:29.154Z,18.90
2017-12-27T22:48:54.953Z,6.07
2017-12-27T22:51:20.759Z,13.30
2017-12-27T22:53:47.573Z,7.93
2017-12-27T22:56:13.434Z,14.20
2017-12-27T22:58:39.877Z,11.10
2017-12-27T23:01:05.679Z,13.55
2017-12-27T23:03:31.604Z,19.63
2017-12-27T23:05:57.516Z,10.87
2017-12-27T23:08:23.313Z,15.60
2017-12-27T23:10:49.202Z,13.43
2017-12-27T23:13:15.017Z,17.70
2017-12-27T23:15:41.181Z,12.20
2017-12-27T23:18:06.975Z,15.48
2017-12-27T23:20:33.010Z,11.67
2017-12-27T23:22:58.822Z,8.85
2017-12-27T23:25:24.604Z,5.70
2017-12-27T23:27:50.421Z,8.13
2017-12-27T23:30:16.256Z,6.57
2017-12-27T23:32:42.345Z,9.40
2017-12-27T23:35:08.147Z,5.95
2017-12-27T23:37:34.211Z,9.67
2017-12-27T23:40:00.018Z,11.02
2017-12-27T23:42:25.830Z,8.63
2017-12-27T23:44:51.627Z,9.50
2017-12-27T23:47:17.470Z,6.00
2017-12-27T23:49:44.976Z,9.18
2017-12-27T23:52:10.774Z,9.00
2017-12-27T23:54:36.573Z,10.70
2017-12-27T23:57:03.183Z,6.27
2017-12-27T23:59:28.983Z,6.95
